sensor_id;sensor_type;location;lat;lon;timestamp;P1;durP1;ratioP1;P2;durP2;ratioP2
22111;SDS011;11222;50.872;4.312;2023-04-19T00:00:04;32.80;;;21.48;;
22111;SDS011;11222;50.872;4.312;2023-04-19T00:02:34;32.35;;;23.20;;
22111;SDS011;11222;50.872;4.312;2023-04-19T00:05:00;31.27;;;23.13;;
22111;SDS011;11222;50.872;4.312;2023-04-19T00:07:26;31.55;;;23.70;;
22111;SDS011;11222;50.872;4.312;2023-04-19T00:09:51;33.90;;;25.10;;
22111;SDS011;11222;50.872;4.312;2023-04-19T00:12:17;32.80;;;22.90;;
22111;SDS011;11222;50.872;4.312;2023-04-19T00:14:43;30.40;;;22.92;;
22111;SDS011;11222;50.872;4.312;2023-04-19T00:17:09;36.45;;;24.70;;
22111;SDS011;11222;50.872;4.312;2023-04-19T00:19:35;33.03;;;23.67;;
22111;SDS011;11222;50.872;4.312;2023-04-19T00:22:01;32.90;;;23.95;;
22111;SDS011;11222;50.872;4.312;2023-04-19T00:24:27;31.50;;;23.23;;
22111;SDS011;11222;50.872;4.312;2023-04-19T00:26:53;33.72;;;24.13;;
22111;SDS011;11222;50.872;4.312;2023-04-19T00:29:19;33.70;;;24.90;;
22111;SDS011;11222;50.872;4.312;2023-04-19T00:31:44;32.63;;;23.83;;
22111;SDS011;11222;50.872;4.312;2023-04-19T00:34:10;33.00;;;23.20;;
22111;SDS011;11222;50.872;4.312;2023-04-19T00:36:36;35.65;;;23.83;;
22111;SDS011;11222;50.872;4.312;2023-04-19T00:39:02;31.00;;;23.35;;
22111;SDS011;11222;50.872;4.312;2023-04-19T00:41:27;34.10;;;24.73;;
22111;SDS011;11222;50.872;4.312;2023-04-19T00:43:53;33.67;;;22.17;;
22111;SDS011;11222;50.872;4.312;2023-04-19T00:46:19;31.77;;;23.65;;
22111;SDS011;11222;50.872;4.312;2023-04-19T00:48:45;31.83;;;22.45;;
22111;SDS011;11222;50.872;4.312;2023-04-19T00:51:12;35.85;;;23.45;;
22111;SDS011;11222;50.872;4.312;2023-04-19T00:53:38;30.65;;;23.33;;
22111;SDS011;11222;50.872;4.312;2023-04-19T00:56:04;31.98;;;23.95;;
22111;SDS011;11222;50.872;4.312;2023-04-19T00:58:31;33.42;;;23.27;;
22111;SDS011;11222;50.872;4.312;2023-04-19T01:00:56;33.58;;;23.58;;
22111;SDS011;11222;50.872;4.312;2023-04-19T01:03:23;33.38;;;23.38;;
22111;SDS011;11222;50.872;4.312;2023-04-19T01:05:51;32.58;;;23.65;;
22111;SDS011;11222;50.872;4.312;2023-04-19T01:08:17;33.03;;;23.67;;
22111;SDS011;11222;50.872;4.312;2023-04-19T01:10:42;34.95;;;25.27;;
22111;SDS011;11222;50.872;4.312;2023-04-19T01:13:08;36.75;;;24.20;;
22111;SDS011;11222;50.872;4.312;2023-04-19T01:15:34;32.80;;;23.58;;
22111;SDS011;11222;50.872;4.312;2023-04-19T01:18:00;36.17;;;24.45;;
22111;SDS011;11222;50.872;4.312;2023-04-19T01:20:26;35.45;;;25.05;;
22111;SDS011;11222;50.872;4.312;2023-04-19T01:22:52;33.65;;;23.85;;
22111;SDS011;11222;50.872;4.312;2023-04-19T01:25:17;35.47;;;23.80;;
22111;SDS011;11222;50.872;4.312;2023-04-19T01:27:43;33.80;;;24.30;;
22111;SDS011;11222;50.872;4.312;2023-04-19T01:30:09;38.28;;;26.00;;
22111;SDS011;11222;50.872;4.312;2023-04-19T01:32:35;33.72;;;22.60;;
22111;SDS011;11222;50.872;4.312;2023-04-19T01:35:01;34.55;;;24.38;;
22111;SDS011;11222;50.872;4.312;2023-04-19T01:37:26;35.03;;;23.27;;
22111;SDS011;11222;50.872;4.312;2023-04-19T01:39:52;34.50;;;24.20;;
22111;SDS011;11222;50.872;4.312;2023-04-19T01:42:18;35.15;;;25.00;;
22111;SDS011;11222;50.872;4.312;2023-04-19T01:44:43;34.40;;;23.88;;
22111;SDS011;11222;50.872;4.312;2023-04-19T01:47:09;36.53;;;26.05;;
22111;SDS011;11222;50.872;4.312;2023-04-19T01:49:35;36.85;;;25.20;;
22111;SDS011;11222;50.872;4.312;2023-04-19T01:52:01;35.30;;;27.05;;
22111;SDS011;11222;50.872;4.312;2023-04-19T01:54:26;34.28;;;23.38;;
22111;SDS011;11222;50.872;4.312;2023-04-19T01:56:52;33.17;;;23.73;;
22111;SDS011;11222;50.872;4.312;2023-04-19T01:59:18;37.85;;;25.63;;
22111;SDS011;11222;50.872;4.312;2023-04-19T02:01:43;33.25;;;24.55;;
22111;SDS011;11222;50.872;4.312;2023-04-19T02:04:09;38.35;;;29.92;;
22111;SDS011;11222;50.872;4.312;2023-04-19T02:06:35;40.47;;;26.98;;
22111;SDS011;11222;50.872;4.312;2023-04-19T02:09:00;36.50;;;26.63;;
22111;SDS011;11222;50.872;4.312;2023-04-19T02:11:26;38.00;;;27.48;;
22111;SDS011;11222;50.872;4.312;2023-04-19T02:13:52;40.08;;;30.75;;
22111;SDS011;11222;50.872;4.312;2023-04-19T02:16:18;38.45;;;28.10;;
22111;SDS011;11222;50.872;4.312;2023-04-19T02:18:43;34.20;;;25.45;;
22111;SDS011;11222;50.872;4.312;2023-04-19T02:21:10;41.70;;;25.95;;
22111;SDS011;11222;50.872;4.312;2023-04-19T02:23:36;33.83;;;22.83;;
22111;SDS011;11222;50.872;4.312;2023-04-19T02:26:02;36.95;;;27.15;;
22111;SDS011;11222;50.872;4.312;2023-04-19T02:28:28;32.45;;;22.25;;
22111;SDS011;11222;50.872;4.312;2023-04-19T02:30:54;34.28;;;24.92;;
22111;SDS011;11222;50.872;4.312;2023-04-19T02:33:20;33.90;;;22.10;;
22111;SDS011;11222;50.872;4.312;2023-04-19T02:35:46;32.92;;;23.77;;
22111;SDS011;11222;50.872;4.312;2023-04-19T02:38:12;34.63;;;23.70;;
22111;SDS011;11222;50.872;4.312;2023-04-19T02:40:37;34.30;;;24.05;;
22111;SDS011;11222;50.872;4.312;2023-04-19T02:43:03;43.42;;;32.42;;
22111;SDS011;11222;50.872;4.312;2023-04-19T02:45:29;42.00;;;31.50;;
22111;SDS011;11222;50.872;4.312;2023-04-19T02:47:54;36.60;;;26.08;;
22111;SDS011;11222;50.872;4.312;2023-04-19T02:50:20;32.78;;;24.00;;
22111;SDS011;11222;50.872;4.312;2023-04-19T02:52:46;34.95;;;24.38;;
22111;SDS011;11222;50.872;4.312;2023-04-19T02:55:11;34.33;;;23.60;;
22111;SDS011;11222;50.872;4.312;2023-04-19T02:57:37;38.20;;;25.40;;
22111;SDS011;11222;50.872;4.312;2023-04-19T03:00:03;36.90;;;24.02;;
22111;SDS011;11222;50.872;4.312;2023-04-19T03:02:29;85.40;;;58.15;;
22111;SDS011;11222;50.872;4.312;2023-04-19T03:04:55;34.35;;;23.60;;
22111;SDS011;11222;50.872;4.312;2023-04-19T03:07:21;36.03;;;24.70;;
22111;SDS011;11222;50.872;4.312;2023-04-19T03:09:47;33.53;;;22.40;;
22111;SDS011;11222;50.872;4.312;2023-04-19T03:12:12;35.13;;;24.75;;
22111;SDS011;11222;50.872;4.312;2023-04-19T03:14:38;35.78;;;24.75;;
22111;SDS011;11222;50.872;4.312;2023-04-19T03:17:04;32.20;;;22.90;;
22111;SDS011;11222;50.872;4.312;2023-04-19T03:19:29;33.60;;;24.65;;
22111;SDS011;11222;50.872;4.312;2023-04-19T03:21:55;34.75;;;24.70;;
22111;SDS011;11222;50.872;4.312;2023-04-19T03:24:27;34.80;;;22.83;;
22111;SDS011;11222;50.872;4.312;2023-04-19T03:26:54;32.75;;;22.73;;
22111;SDS011;11222;50.872;4.312;2023-04-19T03:29:20;30.05;;;21.35;;
22111;SDS011;11222;50.872;4.312;2023-04-19T03:31:46;35.83;;;22.45;;
22111;SDS011;11222;50.872;4.312;2023-04-19T03:34:12;33.13;;;21.55;;
22111;SDS011;11222;50.872;4.312;2023-04-19T03:36:38;34.25;;;23.90;;
22111;SDS011;11222;50.872;4.312;2023-04-19T03:39:04;32.33;;;23.02;;
22111;SDS011;11222;50.872;4.312;2023-04-19T03:41:30;31.90;;;21.52;;
22111;SDS011;11222;50.872;4.312;2023-04-19T03:43:56;30.98;;;21.10;;
22111;SDS011;11222;50.872;4.312;2023-04-19T03:46:22;38.38;;;25.65;;
22111;SDS011;11222;50.872;4.312;2023-04-19T03:48:48;31.60;;;21.73;;
22111;SDS011;11222;50.872;4.312;2023-04-19T03:51:15;30.95;;;22.25;;
22111;SDS011;11222;50.872;4.312;2023-04-19T03:53:41;31.95;;;23.00;;
22111;SDS011;11222;50.872;4.312;2023-04-19T03:56:06;29.40;;;20.77;;
22111;SDS011;11222;50.872;4.312;2023-04-19T03:58:32;30.25;;;21.77;;
22111;SDS011;11222;50.872;4.312;2023-04-19T04:00:58;32.28;;;24.20;;
22111;SDS011;11222;50.872;4.312;2023-04-19T04:03:25;32.72;;;24.15;;
22111;SDS011;11222;50.872;4.312;2023-04-19T04:05:51;30.38;;;22.90;;
22111;SDS011;11222;50.872;4.312;2023-04-19T04:08:17;31.63;;;22.08;;
22111;SDS011;11222;50.872;4.312;2023-04-19T04:10:42;31.33;;;22.65;;
22111;SDS011;11222;50.872;4.312;2023-04-19T04:13:08;30.50;;;21.95;;
22111;SDS011;11222;50.872;4.312;2023-04-19T04:15:34;30.33;;;22.83;;
22111;SDS011;11222;50.872;4.312;2023-04-19T04:18:00;33.00;;;22.30;;
22111;SDS011;11222;50.872;4.312;2023-04-19T04:20:25;29.75;;;21.30;;
22111;SDS011;11222;50.872;4.312;2023-04-19T04:22:51;31.48;;;22.70;;
22111;SDS011;11222;50.872;4.312;2023-04-19T04:25:17;33.42;;;24.08;;
22111;SDS011;11222;50.872;4.312;2023-04-19T04:27:43;30.48;;;22.40;;
22111;SDS011;11222;50.872;4.312;2023-04-19T04:30:09;33.33;;;22.05;;
22111;SDS011;11222;50.872;4.312;2023-04-19T04:32:35;34.35;;;23.60;;
22111;SDS011;11222;50.872;4.312;2023-04-19T04:35:02;32.33;;;21.75;;
22111;SDS011;11222;50.872;4.312;2023-04-19T04:37:32;31.95;;;21.67;;
22111;SDS011;11222;50.872;4.312;2023-04-19T04:39:59;31.60;;;21.85;;
22111;SDS011;11222;50.872;4.312;2023-04-19T04:42:26;32.10;;;21.30;;
22111;SDS011;11222;50.872;4.312;2023-04-19T04:44:52;29.70;;;22.52;;
22111;SDS011;11222;50.872;4.312;2023-04-19T04:47:21;31.63;;;20.70;;
22111;SDS011;11222;50.872;4.312;2023-04-19T04:49:47;32.17;;;22.80;;
22111;SDS011;11222;50.872;4.312;2023-04-19T04:52:13;30.92;;;22.13;;
22111;SDS011;11222;50.872;4.312;2023-04-19T04:54:39;34.33;;;21.83;;
22111;SDS011;11222;50.872;4.312;2023-04-19T04:57:05;33.40;;;22.63;;
22111;SDS011;11222;50.872;4.312;2023-04-19T04:59:31;31.45;;;21.90;;
22111;SDS011;11222;50.872;4.312;2023-04-19T05:01:56;33.13;;;21.90;;
22111;SDS011;11222;50.872;4.312;2023-04-19T05:04:23;33.10;;;23.20;;
22111;SDS011;11222;50.872;4.312;2023-04-19T05:06:48;32.05;;;22.27;;
22111;SDS011;11222;50.872;4.312;2023-04-19T05:09:14;30.63;;;21.25;;
22111;SDS011;11222;50.872;4.312;2023-04-19T05:11:39;31.30;;;22.02;;
22111;SDS011;11222;50.872;4.312;2023-04-19T05:14:05;31.95;;;21.70;;
22111;SDS011;11222;50.872;4.312;2023-04-19T05:16:31;31.17;;;21.50;;
22111;SDS011;11222;50.872;4.312;2023-04-19T05:18:57;32.10;;;22.73;;
22111;SDS011;11222;50.872;4.312;2023-04-19T05:21:23;31.63;;;22.55;;
22111;SDS011;11222;50.872;4.312;2023-04-19T05:23:48;33.75;;;22.95;;
22111;SDS011;11222;50.872;4.312;2023-04-19T05:26:17;31.42;;;22.52;;
22111;SDS011;11222;50.872;4.312;2023-04-19T05:28:43;32.72;;;21.40;;
22111;SDS011;11222;50.872;4.312;2023-04-19T05:31:09;31.60;;;21.65;;
22111;SDS011;11222;50.872;4.312;2023-04-19T05:33:36;31.70;;;23.02;;
22111;SDS011;11222;50.872;4.312;2023-04-19T05:36:02;31.70;;;21.85;;
22111;SDS011;11222;50.872;4.312;2023-04-19T05:38:27;35.30;;;23.48;;
22111;SDS011;11222;50.872;4.312;2023-04-19T05:40:53;34.28;;;23.75;;
22111;SDS011;11222;50.872;4.312;2023-04-19T05:43:19;32.47;;;21.90;;
22111;SDS011;11222;50.872;4.312;2023-04-19T05:45:45;35.00;;;23.10;;
22111;SDS011;11222;50.872;4.312;2023-04-19T05:48:11;34.00;;;23.45;;
22111;SDS011;11222;50.872;4.312;2023-04-19T05:50:37;31.90;;;23.30;;
22111;SDS011;11222;50.872;4.312;2023-04-19T05:53:03;33.95;;;23.35;;
22111;SDS011;11222;50.872;4.312;2023-04-19T05:55:29;35.65;;;23.52;;
22111;SDS011;11222;50.872;4.312;2023-04-19T05:57:55;35.47;;;23.83;;
22111;SDS011;11222;50.872;4.312;2023-04-19T06:00:22;37.20;;;25.50;;
22111;SDS011;11222;50.872;4.312;2023-04-19T06:02:48;31.35;;;21.90;;
22111;SDS011;11222;50.872;4.312;2023-04-19T06:05:14;35.30;;;24.67;;
22111;SDS011;11222;50.872;4.312;2023-04-19T06:07:39;34.47;;;23.85;;
22111;SDS011;11222;50.872;4.312;2023-04-19T06:10:05;33.88;;;23.52;;
22111;SDS011;11222;50.872;4.312;2023-04-19T06:12:32;71.22;;;27.88;;
22111;SDS011;11222;50.872;4.312;2023-04-19T06:14:57;37.72;;;25.00;;
22111;SDS011;11222;50.872;4.312;2023-04-19T06:17:23;34.50;;;22.60;;
22111;SDS011;11222;50.872;4.312;2023-04-19T06:19:52;37.15;;;22.15;;
22111;SDS011;11222;50.872;4.312;2023-04-19T06:22:19;40.10;;;24.20;;
22111;SDS011;11222;50.872;4.312;2023-04-19T06:24:48;36.10;;;21.95;;
22111;SDS011;11222;50.872;4.312;2023-04-19T06:27:14;32.20;;;21.30;;
22111;SDS011;11222;50.872;4.312;2023-04-19T06:29:40;36.40;;;23.35;;
22111;SDS011;11222;50.872;4.312;2023-04-19T06:32:06;34.78;;;23.52;;
22111;SDS011;11222;50.872;4.312;2023-04-19T06:34:33;36.70;;;23.08;;
22111;SDS011;11222;50.872;4.312;2023-04-19T06:36:58;30.75;;;23.63;;
22111;SDS011;11222;50.872;4.312;2023-04-19T06:39:24;32.38;;;22.88;;
22111;SDS011;11222;50.872;4.312;2023-04-19T06:41:51;31.88;;;20.30;;
22111;SDS011;11222;50.872;4.312;2023-04-19T06:44:17;38.25;;;22.92;;
22111;SDS011;11222;50.872;4.312;2023-04-19T06:46:43;31.67;;;22.63;;
22111;SDS011;11222;50.872;4.312;2023-04-19T06:49:08;30.65;;;20.23;;
22111;SDS011;11222;50.872;4.312;2023-04-19T06:51:34;32.17;;;22.05;;
22111;SDS011;11222;50.872;4.312;2023-04-19T06:54:00;32.47;;;20.30;;
22111;SDS011;11222;50.872;4.312;2023-04-19T06:56:39;34.40;;;21.88;;
22111;SDS011;11222;50.872;4.312;2023-04-19T06:59:12;28.30;;;20.95;;
22111;SDS011;11222;50.872;4.312;2023-04-19T07:01:38;27.13;;;20.60;;
22111;SDS011;11222;50.872;4.312;2023-04-19T07:04:05;28.17;;;19.70;;
22111;SDS011;11222;50.872;4.312;2023-04-19T07:06:32;30.35;;;20.48;;
22111;SDS011;11222;50.872;4.312;2023-04-19T07:09:02;28.92;;;19.23;;
22111;SDS011;11222;50.872;4.312;2023-04-19T07:11:29;33.30;;;22.02;;
22111;SDS011;11222;50.872;4.312;2023-04-19T07:13:55;28.52;;;19.40;;
22111;SDS011;11222;50.872;4.312;2023-04-19T07:16:21;27.80;;;19.85;;
22111;SDS011;11222;50.872;4.312;2023-04-19T07:18:47;26.58;;;19.80;;
22111;SDS011;11222;50.872;4.312;2023-04-19T07:21:13;25.15;;;18.95;;
22111;SDS011;11222;50.872;4.312;2023-04-19T07:23:39;35.45;;;19.85;;
22111;SDS011;11222;50.872;4.312;2023-04-19T07:26:05;36.80;;;19.85;;
22111;SDS011;11222;50.872;4.312;2023-04-19T07:28:31;28.85;;;18.67;;
22111;SDS011;11222;50.872;4.312;2023-04-19T07:30:57;31.80;;;19.48;;
22111;SDS011;11222;50.872;4.312;2023-04-19T07:33:23;26.65;;;18.90;;
22111;SDS011;11222;50.872;4.312;2023-04-19T07:35:49;27.60;;;19.27;;
22111;SDS011;11222;50.872;4.312;2023-04-19T07:38:15;27.90;;;17.95;;
22111;SDS011;11222;50.872;4.312;2023-04-19T07:40:41;27.25;;;17.60;;
22111;SDS011;11222;50.872;4.312;2023-04-19T07:43:07;25.42;;;16.45;;
22111;SDS011;11222;50.872;4.312;2023-04-19T07:45:32;24.77;;;17.67;;
22111;SDS011;11222;50.872;4.312;2023-04-19T07:47:59;32.53;;;19.20;;
22111;SDS011;11222;50.872;4.312;2023-04-19T07:50:25;25.92;;;17.33;;
22111;SDS011;11222;50.872;4.312;2023-04-19T07:52:51;25.90;;;18.48;;
22111;SDS011;11222;50.872;4.312;2023-04-19T07:55:17;22.45;;;17.30;;
22111;SDS011;11222;50.872;4.312;2023-04-19T07:57:43;23.08;;;17.08;;
22111;SDS011;11222;50.872;4.312;2023-04-19T08:00:15;24.42;;;16.83;;
22111;SDS011;11222;50.872;4.312;2023-04-19T08:02:43;22.73;;;17.05;;
22111;SDS011;11222;50.872;4.312;2023-04-19T08:05:09;23.50;;;16.88;;
22111;SDS011;11222;50.872;4.312;2023-04-19T08:07:36;24.25;;;18.30;;
22111;SDS011;11222;50.872;4.312;2023-04-19T08:10:02;23.20;;;17.20;;
22111;SDS011;11222;50.872;4.312;2023-04-19T08:12:29;23.52;;;17.20;;
22111;SDS011;11222;50.872;4.312;2023-04-19T08:14:54;22.70;;;14.75;;
22111;SDS011;11222;50.872;4.312;2023-04-19T08:17:20;26.70;;;17.15;;
22111;SDS011;11222;50.872;4.312;2023-04-19T08:19:48;23.23;;;16.08;;
22111;SDS011;11222;50.872;4.312;2023-04-19T08:22:18;24.60;;;16.60;;
22111;SDS011;11222;50.872;4.312;2023-04-19T08:24:44;21.10;;;15.50;;
22111;SDS011;11222;50.872;4.312;2023-04-19T08:27:10;23.40;;;16.25;;
22111;SDS011;11222;50.872;4.312;2023-04-19T08:29:36;19.52;;;15.55;;
22111;SDS011;11222;50.872;4.312;2023-04-19T08:32:03;21.23;;;15.27;;
22111;SDS011;11222;50.872;4.312;2023-04-19T08:34:29;18.98;;;14.63;;
22111;SDS011;11222;50.872;4.312;2023-04-19T08:36:55;18.30;;;14.75;;
22111;SDS011;11222;50.872;4.312;2023-04-19T08:39:21;19.45;;;15.00;;
22111;SDS011;11222;50.872;4.312;2023-04-19T08:41:47;18.90;;;15.32;;
22111;SDS011;11222;50.872;4.312;2023-04-19T08:44:14;21.27;;;14.60;;
22111;SDS011;11222;50.872;4.312;2023-04-19T08:46:41;20.10;;;14.45;;
22111;SDS011;11222;50.872;4.312;2023-04-19T08:49:08;19.48;;;13.50;;
22111;SDS011;11222;50.872;4.312;2023-04-19T08:51:34;20.23;;;14.98;;
22111;SDS011;11222;50.872;4.312;2023-04-19T08:54:05;16.88;;;14.25;;
22111;SDS011;11222;50.872;4.312;2023-04-19T08:56:32;17.55;;;14.75;;
22111;SDS011;11222;50.872;4.312;2023-04-19T08:58:58;16.55;;;13.32;;
22111;SDS011;11222;50.872;4.312;2023-04-19T09:01:23;14.48;;;12.93;;
22111;SDS011;11222;50.872;4.312;2023-04-19T09:03:49;18.33;;;13.95;;
22111;SDS011;11222;50.872;4.312;2023-04-19T09:06:15;17.30;;;13.52;;
22111;SDS011;11222;50.872;4.312;2023-04-19T09:08:41;16.60;;;14.23;;
22111;SDS011;11222;50.872;4.312;2023-04-19T09:11:07;15.75;;;13.73;;
22111;SDS011;11222;50.872;4.312;2023-04-19T09:13:32;14.85;;;12.93;;
22111;SDS011;11222;50.872;4.312;2023-04-19T09:16:02;15.27;;;12.65;;
22111;SDS011;11222;50.872;4.312;2023-04-19T09:18:29;15.77;;;13.40;;
22111;SDS011;11222;50.872;4.312;2023-04-19T09:20:55;14.82;;;12.40;;
22111;SDS011;11222;50.872;4.312;2023-04-19T09:23:25;15.93;;;12.93;;
22111;SDS011;11222;50.872;4.312;2023-04-19T09:28:18;12.68;;;11.25;;
22111;SDS011;11222;50.872;4.312;2023-04-19T09:30:44;15.88;;;12.43;;
22111;SDS011;11222;50.872;4.312;2023-04-19T09:33:10;13.68;;;12.27;;
22111;SDS011;11222;50.872;4.312;2023-04-19T09:35:43;12.40;;;11.18;;
22111;SDS011;11222;50.872;4.312;2023-04-19T09:38:12;14.80;;;12.63;;
22111;SDS011;11222;50.872;4.312;2023-04-19T09:40:38;13.57;;;12.18;;
22111;SDS011;11222;50.872;4.312;2023-04-19T09:43:05;14.82;;;11.95;;
22111;SDS011;11222;50.872;4.312;2023-04-19T09:45:40;12.45;;;11.15;;
22111;SDS011;11222;50.872;4.312;2023-04-19T09:48:08;12.00;;;10.80;;
22111;SDS011;11222;50.872;4.312;2023-04-19T09:50:35;11.88;;;10.50;;
22111;SDS011;11222;50.872;4.312;2023-04-19T09:53:14;12.68;;;10.45;;
22111;SDS011;11222;50.872;4.312;2023-04-19T09:55:41;12.15;;;10.65;;
22111;SDS011;11222;50.872;4.312;2023-04-19T09:58:15;12.50;;;11.18;;
22111;SDS011;11222;50.872;4.312;2023-04-19T10:00:42;12.25;;;10.75;;
22111;SDS011;11222;50.872;4.312;2023-04-19T10:03:09;14.70;;;11.23;;
22111;SDS011;11222;50.872;4.312;2023-04-19T10:05:37;12.65;;;10.88;;
22111;SDS011;11222;50.872;4.312;2023-04-19T10:08:06;11.38;;;10.23;;
22111;SDS011;11222;50.872;4.312;2023-04-19T10:10:33;11.05;;;9.95;;
22111;SDS011;11222;50.872;4.312;2023-04-19T10:13:00;12.77;;;10.68;;
22111;SDS011;11222;50.872;4.312;2023-04-19T10:15:28;12.00;;;10.48;;
22111;SDS011;11222;50.872;4.312;2023-04-19T10:17:55;11.07;;;9.95;;
22111;SDS011;11222;50.872;4.312;2023-04-19T10:20:41;11.48;;;10.20;;
22111;SDS011;11222;50.872;4.312;2023-04-19T10:23:19;11.25;;;10.15;;
22111;SDS011;11222;50.872;4.312;2023-04-19T10:25:46;12.32;;;10.20;;
22111;SDS011;11222;50.872;4.312;2023-04-19T10:28:16;11.20;;;10.10;;
22111;SDS011;11222;50.872;4.312;2023-04-19T10:31:01;11.40;;;10.30;;
22111;SDS011;11222;50.872;4.312;2023-04-19T10:33:30;13.75;;;10.23;;
22111;SDS011;11222;50.872;4.312;2023-04-19T10:35:59;10.82;;;9.77;;
22111;SDS011;11222;50.872;4.312;2023-04-19T10:41:12;11.13;;;9.88;;
22111;SDS011;11222;50.872;4.312;2023-04-19T10:43:39;12.00;;;9.80;;
22111;SDS011;11222;50.872;4.312;2023-04-19T10:48:35;10.20;;;9.02;;
22111;SDS011;11222;50.872;4.312;2023-04-19T10:51:18;9.88;;;8.88;;
22111;SDS011;11222;50.872;4.312;2023-04-19T10:53:50;10.43;;;9.43;;
22111;SDS011;11222;50.872;4.312;2023-04-19T11:09:20;10.32;;;9.05;;
22111;SDS011;11222;50.872;4.312;2023-04-19T11:11:47;10.70;;;8.57;;
22111;SDS011;11222;50.872;4.312;2023-04-19T11:14:13;11.48;;;9.13;;
22111;SDS011;11222;50.872;4.312;2023-04-19T11:16:40;10.15;;;9.02;;
22111;SDS011;11222;50.872;4.312;2023-04-19T11:19:06;10.30;;;9.15;;
22111;SDS011;11222;50.872;4.312;2023-04-19T11:21:32;11.25;;;9.07;;
22111;SDS011;11222;50.872;4.312;2023-04-19T11:24:06;9.43;;;8.35;;
22111;SDS011;11222;50.872;4.312;2023-04-19T11:26:36;10.65;;;9.55;;
22111;SDS011;11222;50.872;4.312;2023-04-19T11:29:02;11.32;;;9.88;;
22111;SDS011;11222;50.872;4.312;2023-04-19T11:31:30;11.73;;;9.57;;
22111;SDS011;11222;50.872;4.312;2023-04-19T11:33:57;11.63;;;9.52;;
22111;SDS011;11222;50.872;4.312;2023-04-19T11:36:24;10.35;;;8.95;;
22111;SDS011;11222;50.872;4.312;2023-04-19T11:38:50;12.98;;;9.32;;
22111;SDS011;11222;50.872;4.312;2023-04-19T11:41:17;14.20;;;10.02;;
22111;SDS011;11222;50.872;4.312;2023-04-19T11:43:43;12.70;;;8.57;;
22111;SDS011;11222;50.872;4.312;2023-04-19T11:46:12;9.23;;;8.32;;
22111;SDS011;11222;50.872;4.312;2023-04-19T11:48:38;10.20;;;9.15;;
22111;SDS011;11222;50.872;4.312;2023-04-19T11:51:17;10.32;;;9.30;;
22111;SDS011;11222;50.872;4.312;2023-04-19T11:53:43;10.10;;;9.10;;
22111;SDS011;11222;50.872;4.312;2023-04-19T11:56:09;10.15;;;9.07;;
22111;SDS011;11222;50.872;4.312;2023-04-19T11:58:39;12.85;;;9.40;;
22111;SDS011;11222;50.872;4.312;2023-04-19T12:01:13;10.02;;;9.00;;
22111;SDS011;11222;50.872;4.312;2023-04-19T12:06:17;13.50;;;10.07;;
22111;SDS011;11222;50.872;4.312;2023-04-19T12:08:48;11.20;;;9.77;;
22111;SDS011;11222;50.872;4.312;2023-04-19T12:11:15;11.75;;;10.25;;
22111;SDS011;11222;50.872;4.312;2023-04-19T12:13:42;13.65;;;10.48;;
22111;SDS011;11222;50.872;4.312;2023-04-19T12:16:08;14.57;;;10.82;;
22111;SDS011;11222;50.872;4.312;2023-04-19T12:18:48;11.23;;;9.93;;
22111;SDS011;11222;50.872;4.312;2023-04-19T12:23:56;11.43;;;8.95;;
22111;SDS011;11222;50.872;4.312;2023-04-19T12:26:22;17.85;;;9.30;;
22111;SDS011;11222;50.872;4.312;2023-04-19T12:28:49;10.02;;;8.75;;
22111;SDS011;11222;50.872;4.312;2023-04-19T12:31:15;10.32;;;8.30;;
22111;SDS011;11222;50.872;4.312;2023-04-19T12:33:42;11.82;;;9.05;;
22111;SDS011;11222;50.872;4.312;2023-04-19T12:36:07;11.20;;;8.65;;
22111;SDS011;11222;50.872;4.312;2023-04-19T12:38:33;12.82;;;8.30;;
22111;SDS011;11222;50.872;4.312;2023-04-19T12:40:59;12.10;;;8.82;;
22111;SDS011;11222;50.872;4.312;2023-04-19T12:43:25;9.57;;;8.43;;
22111;SDS011;11222;50.872;4.312;2023-04-19T12:45:51;10.90;;;7.28;;
22111;SDS011;11222;50.872;4.312;2023-04-19T12:48:18;12.80;;;8.82;;
22111;SDS011;11222;50.872;4.312;2023-04-19T12:50:44;9.32;;;7.75;;
22111;SDS011;11222;50.872;4.312;2023-04-19T12:53:10;11.13;;;7.80;;
22111;SDS011;11222;50.872;4.312;2023-04-19T12:55:36;10.13;;;8.35;;
22111;SDS011;11222;50.872;4.312;2023-04-19T12:58:02;12.13;;;9.52;;
22111;SDS011;11222;50.872;4.312;2023-04-19T13:00:27;10.10;;;7.93;;
22111;SDS011;11222;50.872;4.312;2023-04-19T13:02:54;10.55;;;7.82;;
22111;SDS011;11222;50.872;4.312;2023-04-19T13:05:20;10.68;;;7.90;;
22111;SDS011;11222;50.872;4.312;2023-04-19T13:07:46;12.13;;;7.75;;
22111;SDS011;11222;50.872;4.312;2023-04-19T13:10:11;13.38;;;7.82;;
22111;SDS011;11222;50.872;4.312;2023-04-19T13:12:37;9.57;;;7.63;;
22111;SDS011;11222;50.872;4.312;2023-04-19T13:15:04;9.45;;;7.85;;
22111;SDS011;11222;50.872;4.312;2023-04-19T13:17:31;8.77;;;7.47;;
22111;SDS011;11222;50.872;4.312;2023-04-19T13:19:56;7.50;;;6.40;;
22111;SDS011;11222;50.872;4.312;2023-04-19T13:22:22;14.60;;;7.40;;
22111;SDS011;11222;50.872;4.312;2023-04-19T13:24:48;9.93;;;6.82;;
22111;SDS011;11222;50.872;4.312;2023-04-19T13:27:13;8.15;;;6.30;;
22111;SDS011;11222;50.872;4.312;2023-04-19T13:29:40;8.55;;;6.40;;
22111;SDS011;11222;50.872;4.312;2023-04-19T13:32:05;8.63;;;6.45;;
22111;SDS011;11222;50.872;4.312;2023-04-19T13:34:36;6.65;;;5.68;;
22111;SDS011;11222;50.872;4.312;2023-04-19T13:37:02;8.95;;;6.60;;
22111;SDS011;11222;50.872;4.312;2023-04-19T13:39:28;8.20;;;5.97;;
22111;SDS011;11222;50.872;4.312;2023-04-19T13:41:53;7.82;;;5.75;;
22111;SDS011;11222;50.872;4.312;2023-04-19T13:44:19;7.97;;;6.00;;
22111;SDS011;11222;50.872;4.312;2023-04-19T13:46:45;8.85;;;6.20;;
22111;SDS011;11222;50.872;4.312;2023-04-19T13:49:10;9.25;;;5.60;;
22111;SDS011;11222;50.872;4.312;2023-04-19T13:51:36;7.63;;;5.75;;
22111;SDS011;11222;50.872;4.312;2023-04-19T13:54:02;6.45;;;5.28;;
22111;SDS011;11222;50.872;4.312;2023-04-19T13:56:27;6.55;;;5.25;;
22111;SDS011;11222;50.872;4.312;2023-04-19T13:58:54;8.65;;;5.32;;
22111;SDS011;11222;50.872;4.312;2023-04-19T14:01:19;7.35;;;5.53;;
22111;SDS011;11222;50.872;4.312;2023-04-19T14:03:45;7.15;;;5.68;;
22111;SDS011;11222;50.872;4.312;2023-04-19T14:06:11;9.25;;;5.40;;
22111;SDS011;11222;50.872;4.312;2023-04-19T14:08:37;7.10;;;5.30;;
22111;SDS011;11222;50.872;4.312;2023-04-19T14:11:02;7.95;;;5.40;;
22111;SDS011;11222;50.872;4.312;2023-04-19T14:13:28;12.57;;;4.55;;
22111;SDS011;11222;50.872;4.312;2023-04-19T14:15:54;8.70;;;4.70;;
22111;SDS011;11222;50.872;4.312;2023-04-19T14:18:20;7.03;;;4.90;;
22111;SDS011;11222;50.872;4.312;2023-04-19T14:20:45;6.25;;;4.90;;
22111;SDS011;11222;50.872;4.312;2023-04-19T14:23:11;10.55;;;5.03;;
22111;SDS011;11222;50.872;4.312;2023-04-19T14:25:37;7.07;;;4.97;;
22111;SDS011;11222;50.872;4.312;2023-04-19T14:28:02;8.80;;;4.50;;
22111;SDS011;11222;50.872;4.312;2023-04-19T14:30:28;5.65;;;3.85;;
22111;SDS011;11222;50.872;4.312;2023-04-19T14:32:54;6.55;;;4.53;;
22111;SDS011;11222;50.872;4.312;2023-04-19T14:35:20;5.03;;;4.53;;
22111;SDS011;11222;50.872;4.312;2023-04-19T14:37:45;4.78;;;4.13;;
22111;SDS011;11222;50.872;4.312;2023-04-19T14:40:11;7.55;;;4.30;;
22111;SDS011;11222;50.872;4.312;2023-04-19T14:42:37;8.00;;;4.00;;
22111;SDS011;11222;50.872;4.312;2023-04-19T14:45:03;4.90;;;4.13;;
22111;SDS011;11222;50.872;4.312;2023-04-19T14:47:29;6.53;;;4.63;;